• Join FlightAware (Why Join?)
  • Login
  • US Flag 
05:25PM EST


 

Airport Tracker/Info


-or-


 

Live Flight TrackerFlight Track Log ✈ N2960R ✈ 02-Nov-2013 ✈ KBID - KBDR

Flight Track Log - Related Links

Times and Time Zones

All times are in EDT time to prevent confusion due to time zone crossing. See the N2960R flight status page for this flight to view local times or setup timezone preferences in your user account.

Time Position Orientation Groundspeed Altitude Reporting Facility
EDT Latitude Longitude Course Direction KTS MPH feet Rate Location/Type
03:10PM 41.1314 -71.6981 255° West 100 115 3,800  Level Boston Center
03:11PM 41.1242 -71.7328 255° West 99 114 4,500 420 Climbing Boston Center
03:12PM 41.1194 -71.7550 254° West 114 131 4,500  Level Boston Center
03:12PM 41.1133 -71.7744 247° West 127 146 4,500 -120 Level Boston Center
03:13PM 41.1097 -71.8006 260° West 128 147 4,400 -120 Descending Boston Center
03:13PM 41.1042 -71.8283 255° West 144 166 4,400  Level Boston Center
03:14PM 41.0983 -71.8461 246° West 131 151 4,400 -120 Level Boston Center
03:14PM 41.0931 -71.8700 254° West 152 175 4,300  Descending Boston Center
03:15PM 41.0872 -71.8939 252° West 129 148 4,400 60 Climbing Boston Center
03:16PM 41.0786 -71.9353 255° West 125 144 4,400  Level Boston Center
03:17PM 41.0703 -71.9806 256° West 127 146 4,400  Level Boston Center
03:18PM 41.0644 -72.0272 261° West 127 146 4,400  Level Boston Center
03:19PM 41.0592 -72.0733 261° West 129 148 4,400  Level Boston Center
03:20PM 41.0536 -72.1211 261° West 131 151 4,400  Level Boston Center
03:21PM 41.0472 -72.1767 261° West 129 148 4,400  Level Boston Center
03:22PM 41.0419 -72.2222 261° West 128 147 4,500  Climbing Boston Center
03:23PM 41.0356 -72.2692 260° West 128 147 4,400 -60 Descending Boston Center
03:24PM 41.0294 -72.3147 260° West 127 146 4,400  Level Boston Center
03:25PM 41.0236 -72.3606 260° West 128 147 4,500  Climbing Boston Center
03:26PM 41.0167 -72.4000 257° West 128 147 4,500  Level New York TRACON
03:27PM 41.0167 -72.4500 270° West 125 144 4,500  Level New York TRACON
03:28PM 41.0167 -72.4833 270° West 126 145 4,600  Climbing New York TRACON
03:29PM 41.0167 -72.5333 270° West 123 142 4,600  Level New York TRACON
03:30PM 41.0167 -72.5833 270° West 124 143 4,600 -60 Level New York TRACON
03:31PM 41.0333 -72.6167 304° West 126 145 4,500  Descending New York TRACON
03:32PM 41.0500 -72.6667 294° West 123 142 4,600  Climbing New York TRACON
03:33PM 41.0500 -72.7167 270° West 126 145 4,500 -60 Descending New York TRACON
03:34PM 41.0667 -72.7500 304° West 128 147 4,500 -60 Level New York TRACON
03:36PM 41.0956 -72.8586 289° West 128 147 4,400 -60 Descending Boston Center
03:37PM 41.1069 -72.9019 289° West 126 145 4,400 -360 Level Boston Center
03:38PM 41.1189 -72.9542 287° West 124 143 3,700 -780 Descending Boston Center
03:39PM 41.1431 -72.9897 312° West 135 155 2,900 -900 Descending Boston Center
03:40PM 41.1558 -73.0328 292° West 134 154 1,900 -1,020 Descending Boston Center
03:41PM 41.1667 -73.0736 289° West 124 143 900 -840 Descending Boston Center
03:42PM 41.1769 -73.1056 293° West 111 128 300 -600 Descending Boston Center